Asbury, Iowa
Current Conditions -  °F | °C
As of 1:53 PM on Thursday 29 Jan 2015 (Local Time) from KDBQ Reporting Station
Overcast Overcast  
Wind Chill: 23°   Ceiling: 2600
Heat Index: 34°   Visibility: 10mi
Dew Point: 26°   Wind: 20mph
Humidity: 73%   Direction: 340°NNW
Pressure: 30.09"   Gusts: NA
Location:  42.522°N, 90.7782°W
Report Text: KDBQ 291953Z 34017KT 10SM OVC026 01/M03 A3009 RMK AO2 PK WND 33031/1921 SLP201 T00111033
Loading
Personal Weather Stations






























Interactive Weather Map New forecast layout! Learn more

10-Day Weather Forecast

Advertisements
Track Severe Weather on mobile